Villa Flores, Puerto Rico
Current Conditions -  °F | °C
As of 3:53 PM on Sunday 23 Nov 2014 (Local Time) from TJNR Reporting Station
Clear Clear  
Wind Chill: 29°   Ceiling: Unl
Heat Index: 32°   Visibility: 10mi
Dew Point: 22°   Wind: 14mph
Humidity: 65%   Direction: 110°ESE
Pressure: 30"   Gusts: 21mph
Location:  18.2667°N, 65.6476°W
Report Text: TJNR 231953Z AUTO 11012G18KT 10SM CLR 29/22 A3000 RMK AO2 SLP159 T02890217 $
Loading
Personal Weather Stations






























Interactive Weather Map New forecast layout! Learn more

10-Day Weather Forecast

Advertisements
Track Severe Weather on mobile